sensor_id;sensor_type;location;lat;lon;timestamp;P1;durP1;ratioP1;P2;durP2;ratioP2
6199;SDS011;3133;43.214;27.906;2023-07-08T00:00:08;6.93;;;4.50;;
6199;SDS011;3133;43.214;27.906;2023-07-08T00:02:37;4.73;;;4.30;;
6199;SDS011;3133;43.214;27.906;2023-07-08T00:05:04;7.33;;;4.20;;
6199;SDS011;3133;43.214;27.906;2023-07-08T00:07:31;11.47;;;4.53;;
6199;SDS011;3133;43.214;27.906;2023-07-08T00:09:58;4.73;;;4.23;;
6199;SDS011;3133;43.214;27.906;2023-07-08T00:12:24;5.87;;;4.03;;
6199;SDS011;3133;43.214;27.906;2023-07-08T00:14:51;4.53;;;4.13;;
6199;SDS011;3133;43.214;27.906;2023-07-08T00:17:19;6.33;;;4.07;;
6199;SDS011;3133;43.214;27.906;2023-07-08T00:19:46;7.20;;;4.60;;
6199;SDS011;3133;43.214;27.906;2023-07-08T00:22:13;6.13;;;4.83;;
6199;SDS011;3133;43.214;27.906;2023-07-08T00:24:41;5.43;;;4.37;;
6199;SDS011;3133;43.214;27.906;2023-07-08T00:27:10;5.90;;;3.90;;
6199;SDS011;3133;43.214;27.906;2023-07-08T00:29:38;4.80;;;4.40;;
6199;SDS011;3133;43.214;27.906;2023-07-08T00:32:09;5.97;;;4.30;;
6199;SDS011;3133;43.214;27.906;2023-07-08T00:34:40;4.90;;;4.23;;
6199;SDS011;3133;43.214;27.906;2023-07-08T00:37:08;6.37;;;4.57;;
6199;SDS011;3133;43.214;27.906;2023-07-08T00:39:37;5.93;;;4.73;;
6199;SDS011;3133;43.214;27.906;2023-07-08T00:42:06;4.80;;;4.23;;
6199;SDS011;3133;43.214;27.906;2023-07-08T00:44:40;8.43;;;4.57;;
6199;SDS011;3133;43.214;27.906;2023-07-08T00:47:09;4.63;;;4.13;;
6199;SDS011;3133;43.214;27.906;2023-07-08T00:49:39;6.17;;;4.50;;
6199;SDS011;3133;43.214;27.906;2023-07-08T00:52:16;6.10;;;5.13;;
6199;SDS011;3133;43.214;27.906;2023-07-08T00:54:52;5.13;;;4.63;;
6199;SDS011;3133;43.214;27.906;2023-07-08T00:57:20;7.77;;;5.33;;
6199;SDS011;3133;43.214;27.906;2023-07-08T00:59:49;11.90;;;4.53;;
6199;SDS011;3133;43.214;27.906;2023-07-08T01:02:22;5.60;;;4.60;;
6199;SDS011;3133;43.214;27.906;2023-07-08T01:04:54;5.40;;;4.67;;
6199;SDS011;3133;43.214;27.906;2023-07-08T01:07:28;5.17;;;4.40;;
6199;SDS011;3133;43.214;27.906;2023-07-08T01:09:59;6.83;;;4.87;;
6199;SDS011;3133;43.214;27.906;2023-07-08T01:12:29;5.07;;;4.57;;
6199;SDS011;3133;43.214;27.906;2023-07-08T01:15:00;12.00;;;5.33;;
6199;SDS011;3133;43.214;27.906;2023-07-08T01:17:29;5.73;;;4.40;;
6199;SDS011;3133;43.214;27.906;2023-07-08T01:19:59;7.60;;;4.33;;
6199;SDS011;3133;43.214;27.906;2023-07-08T01:22:31;5.03;;;4.53;;
6199;SDS011;3133;43.214;27.906;2023-07-08T01:24:58;6.07;;;4.67;;
6199;SDS011;3133;43.214;27.906;2023-07-08T01:27:28;5.03;;;4.53;;
6199;SDS011;3133;43.214;27.906;2023-07-08T01:29:57;13.03;;;4.60;;
6199;SDS011;3133;43.214;27.906;2023-07-08T01:32:24;7.57;;;5.10;;
6199;SDS011;3133;43.214;27.906;2023-07-08T01:34:52;4.23;;;3.83;;
6199;SDS011;3133;43.214;27.906;2023-07-08T01:37:31;5.67;;;4.50;;
6199;SDS011;3133;43.214;27.906;2023-07-08T01:40:14;5.30;;;4.80;;
6199;SDS011;3133;43.214;27.906;2023-07-08T01:42:50;6.27;;;4.93;;
6199;SDS011;3133;43.214;27.906;2023-07-08T01:45:18;6.27;;;5.03;;
6199;SDS011;3133;43.214;27.906;2023-07-08T01:47:48;5.77;;;5.17;;
6199;SDS011;3133;43.214;27.906;2023-07-08T01:50:19;5.50;;;5.00;;
6199;SDS011;3133;43.214;27.906;2023-07-08T01:52:49;5.03;;;4.37;;
6199;SDS011;3133;43.214;27.906;2023-07-08T01:55:21;5.93;;;4.53;;
6199;SDS011;3133;43.214;27.906;2023-07-08T01:57:50;5.97;;;4.70;;
6199;SDS011;3133;43.214;27.906;2023-07-08T02:00:17;7.37;;;4.23;;
6199;SDS011;3133;43.214;27.906;2023-07-08T02:02:44;4.60;;;4.00;;
6199;SDS011;3133;43.214;27.906;2023-07-08T02:05:11;7.80;;;4.87;;
6199;SDS011;3133;43.214;27.906;2023-07-08T02:07:38;4.50;;;4.10;;
6199;SDS011;3133;43.214;27.906;2023-07-08T02:10:07;4.67;;;4.23;;
6199;SDS011;3133;43.214;27.906;2023-07-08T02:12:34;5.83;;;4.60;;
6199;SDS011;3133;43.214;27.906;2023-07-08T02:15:02;10.53;;;4.63;;
6199;SDS011;3133;43.214;27.906;2023-07-08T02:17:29;5.40;;;4.43;;
6199;SDS011;3133;43.214;27.906;2023-07-08T02:19:57;5.73;;;4.33;;
6199;SDS011;3133;43.214;27.906;2023-07-08T02:22:24;4.63;;;3.90;;
6199;SDS011;3133;43.214;27.906;2023-07-08T02:24:51;3.97;;;3.57;;
6199;SDS011;3133;43.214;27.906;2023-07-08T02:27:19;6.13;;;3.87;;
6199;SDS011;3133;43.214;27.906;2023-07-08T02:29:46;4.80;;;4.17;;
6199;SDS011;3133;43.214;27.906;2023-07-08T02:32:13;7.00;;;4.37;;
6199;SDS011;3133;43.214;27.906;2023-07-08T02:34:40;5.10;;;3.73;;
6199;SDS011;3133;43.214;27.906;2023-07-08T02:37:06;5.70;;;3.13;;
6199;SDS011;3133;43.214;27.906;2023-07-08T02:39:33;4.37;;;3.97;;
6199;SDS011;3133;43.214;27.906;2023-07-08T02:42:00;6.83;;;4.50;;
6199;SDS011;3133;43.214;27.906;2023-07-08T02:44:28;4.47;;;3.60;;
6199;SDS011;3133;43.214;27.906;2023-07-08T02:46:55;4.53;;;3.60;;
6199;SDS011;3133;43.214;27.906;2023-07-08T02:49:22;9.13;;;3.83;;
6199;SDS011;3133;43.214;27.906;2023-07-08T02:51:49;5.17;;;4.47;;
6199;SDS011;3133;43.214;27.906;2023-07-08T02:54:16;5.57;;;4.27;;
6199;SDS011;3133;43.214;27.906;2023-07-08T02:56:43;6.27;;;4.40;;
6199;SDS011;3133;43.214;27.906;2023-07-08T02:59:09;3.97;;;3.67;;
6199;SDS011;3133;43.214;27.906;2023-07-08T03:01:37;6.70;;;4.20;;
6199;SDS011;3133;43.214;27.906;2023-07-08T03:04:07;4.37;;;3.97;;
6199;SDS011;3133;43.214;27.906;2023-07-08T03:06:38;6.90;;;4.43;;
6199;SDS011;3133;43.214;27.906;2023-07-08T03:09:05;7.30;;;3.97;;
6199;SDS011;3133;43.214;27.906;2023-07-08T03:11:32;5.33;;;4.10;;
6199;SDS011;3133;43.214;27.906;2023-07-08T03:13:59;6.63;;;4.40;;
6199;SDS011;3133;43.214;27.906;2023-07-08T03:16:26;4.47;;;4.03;;
6199;SDS011;3133;43.214;27.906;2023-07-08T03:18:54;6.27;;;4.13;;
6199;SDS011;3133;43.214;27.906;2023-07-08T03:21:21;5.87;;;4.70;;
6199;SDS011;3133;43.214;27.906;2023-07-08T03:23:48;5.10;;;4.40;;
6199;SDS011;3133;43.214;27.906;2023-07-08T03:26:16;5.93;;;4.30;;
6199;SDS011;3133;43.214;27.906;2023-07-08T03:28:46;4.60;;;4.20;;
6199;SDS011;3133;43.214;27.906;2023-07-08T03:31:13;5.37;;;4.40;;
6199;SDS011;3133;43.214;27.906;2023-07-08T03:33:41;9.30;;;4.90;;
6199;SDS011;3133;43.214;27.906;2023-07-08T03:36:11;7.90;;;4.70;;
6199;SDS011;3133;43.214;27.906;2023-07-08T03:38:47;5.20;;;4.50;;
6199;SDS011;3133;43.214;27.906;2023-07-08T03:41:15;5.37;;;4.40;;
6199;SDS011;3133;43.214;27.906;2023-07-08T03:43:42;5.30;;;4.13;;
6199;SDS011;3133;43.214;27.906;2023-07-08T03:46:09;7.40;;;4.40;;
6199;SDS011;3133;43.214;27.906;2023-07-08T03:48:37;6.97;;;4.60;;
6199;SDS011;3133;43.214;27.906;2023-07-08T03:51:04;5.83;;;4.47;;
6199;SDS011;3133;43.214;27.906;2023-07-08T03:53:35;11.33;;;4.87;;
6199;SDS011;3133;43.214;27.906;2023-07-08T03:56:02;8.17;;;5.73;;
6199;SDS011;3133;43.214;27.906;2023-07-08T03:58:29;7.03;;;5.00;;
6199;SDS011;3133;43.214;27.906;2023-07-08T04:00:55;5.47;;;4.97;;
6199;SDS011;3133;43.214;27.906;2023-07-08T04:03:22;7.67;;;4.67;;
6199;SDS011;3133;43.214;27.906;2023-07-08T04:05:49;5.73;;;4.60;;
6199;SDS011;3133;43.214;27.906;2023-07-08T04:08:16;5.73;;;4.33;;
6199;SDS011;3133;43.214;27.906;2023-07-08T04:10:44;9.73;;;4.73;;
6199;SDS011;3133;43.214;27.906;2023-07-08T04:13:11;5.37;;;4.87;;
6199;SDS011;3133;43.214;27.906;2023-07-08T04:15:38;6.83;;;4.37;;
6199;SDS011;3133;43.214;27.906;2023-07-08T04:18:05;7.93;;;5.50;;
6199;SDS011;3133;43.214;27.906;2023-07-08T04:20:32;6.57;;;4.33;;
6199;SDS011;3133;43.214;27.906;2023-07-08T04:22:59;6.43;;;4.90;;
6199;SDS011;3133;43.214;27.906;2023-07-08T04:25:25;4.93;;;4.50;;
6199;SDS011;3133;43.214;27.906;2023-07-08T04:27:54;8.37;;;5.53;;
6199;SDS011;3133;43.214;27.906;2023-07-08T04:30:21;9.83;;;5.00;;
6199;SDS011;3133;43.214;27.906;2023-07-08T04:32:51;9.03;;;5.13;;
6199;SDS011;3133;43.214;27.906;2023-07-08T04:35:21;10.23;;;5.43;;
6199;SDS011;3133;43.214;27.906;2023-07-08T04:37:47;10.03;;;5.47;;
6199;SDS011;3133;43.214;27.906;2023-07-08T04:40:17;6.93;;;5.27;;
6199;SDS011;3133;43.214;27.906;2023-07-08T04:42:46;7.30;;;5.17;;
6199;SDS011;3133;43.214;27.906;2023-07-08T04:45:16;6.17;;;5.13;;
6199;SDS011;3133;43.214;27.906;2023-07-08T04:47:44;8.03;;;5.53;;
6199;SDS011;3133;43.214;27.906;2023-07-08T04:50:17;6.50;;;5.50;;
6199;SDS011;3133;43.214;27.906;2023-07-08T04:52:44;7.40;;;5.63;;
6199;SDS011;3133;43.214;27.906;2023-07-08T04:55:12;6.33;;;5.70;;
6199;SDS011;3133;43.214;27.906;2023-07-08T04:57:39;9.20;;;5.87;;
6199;SDS011;3133;43.214;27.906;2023-07-08T05:00:09;6.87;;;4.87;;
6199;SDS011;3133;43.214;27.906;2023-07-08T05:02:42;11.67;;;5.90;;
6199;SDS011;3133;43.214;27.906;2023-07-08T05:05:09;11.73;;;5.70;;
6199;SDS011;3133;43.214;27.906;2023-07-08T05:07:36;6.33;;;5.23;;
6199;SDS011;3133;43.214;27.906;2023-07-08T05:10:03;7.57;;;4.83;;
6199;SDS011;3133;43.214;27.906;2023-07-08T05:12:31;6.07;;;5.50;;
6199;SDS011;3133;43.214;27.906;2023-07-08T05:14:57;8.43;;;5.70;;
6199;SDS011;3133;43.214;27.906;2023-07-08T05:17:24;5.07;;;4.57;;
6199;SDS011;3133;43.214;27.906;2023-07-08T05:19:52;9.47;;;5.77;;
6199;SDS011;3133;43.214;27.906;2023-07-08T05:22:19;9.80;;;5.23;;
6199;SDS011;3133;43.214;27.906;2023-07-08T05:24:50;6.73;;;4.93;;
6199;SDS011;3133;43.214;27.906;2023-07-08T05:27:20;9.13;;;5.30;;
6199;SDS011;3133;43.214;27.906;2023-07-08T05:29:48;7.43;;;5.77;;
6199;SDS011;3133;43.214;27.906;2023-07-08T05:32:16;7.13;;;6.10;;
6199;SDS011;3133;43.214;27.906;2023-07-08T05:34:44;7.20;;;4.97;;
6199;SDS011;3133;43.214;27.906;2023-07-08T05:37:13;7.33;;;5.50;;
6199;SDS011;3133;43.214;27.906;2023-07-08T05:39:40;15.07;;;5.17;;
6199;SDS011;3133;43.214;27.906;2023-07-08T05:42:09;11.33;;;5.10;;
6199;SDS011;3133;43.214;27.906;2023-07-08T05:44:37;9.50;;;4.93;;
6199;SDS011;3133;43.214;27.906;2023-07-08T05:47:04;9.87;;;4.80;;
6199;SDS011;3133;43.214;27.906;2023-07-08T05:49:31;8.20;;;5.00;;
6199;SDS011;3133;43.214;27.906;2023-07-08T05:51:57;7.63;;;4.33;;
6199;SDS011;3133;43.214;27.906;2023-07-08T05:54:32;6.07;;;4.60;;
6199;SDS011;3133;43.214;27.906;2023-07-08T05:57:01;9.53;;;5.23;;
6199;SDS011;3133;43.214;27.906;2023-07-08T05:59:28;6.63;;;5.10;;
6199;SDS011;3133;43.214;27.906;2023-07-08T06:01:55;15.00;;;6.50;;
6199;SDS011;3133;43.214;27.906;2023-07-08T06:04:22;7.47;;;5.07;;
6199;SDS011;3133;43.214;27.906;2023-07-08T06:06:48;7.97;;;5.17;;
6199;SDS011;3133;43.214;27.906;2023-07-08T06:09:15;9.93;;;4.63;;
6199;SDS011;3133;43.214;27.906;2023-07-08T06:11:43;13.10;;;5.40;;
6199;SDS011;3133;43.214;27.906;2023-07-08T06:14:11;9.00;;;5.27;;
6199;SDS011;3133;43.214;27.906;2023-07-08T06:16:38;14.33;;;5.63;;
6199;SDS011;3133;43.214;27.906;2023-07-08T06:19:05;14.30;;;4.57;;
6199;SDS011;3133;43.214;27.906;2023-07-08T06:21:32;7.57;;;5.27;;
6199;SDS011;3133;43.214;27.906;2023-07-08T06:23:59;5.73;;;4.97;;
6199;SDS011;3133;43.214;27.906;2023-07-08T06:26:26;11.20;;;5.00;;
6199;SDS011;3133;43.214;27.906;2023-07-08T06:28:55;7.47;;;4.93;;
6199;SDS011;3133;43.214;27.906;2023-07-08T06:31:21;21.97;;;6.47;;
6199;SDS011;3133;43.214;27.906;2023-07-08T06:33:48;5.27;;;4.43;;
6199;SDS011;3133;43.214;27.906;2023-07-08T06:36:15;5.83;;;4.93;;
6199;SDS011;3133;43.214;27.906;2023-07-08T06:38:42;23.23;;;5.80;;
6199;SDS011;3133;43.214;27.906;2023-07-08T06:41:09;6.80;;;4.87;;
6199;SDS011;3133;43.214;27.906;2023-07-08T06:43:39;9.57;;;5.40;;
6199;SDS011;3133;43.214;27.906;2023-07-08T06:46:07;11.37;;;5.43;;
6199;SDS011;3133;43.214;27.906;2023-07-08T06:48:34;7.47;;;4.97;;
6199;SDS011;3133;43.214;27.906;2023-07-08T06:51:02;8.27;;;5.27;;
6199;SDS011;3133;43.214;27.906;2023-07-08T06:53:28;8.27;;;5.10;;
6199;SDS011;3133;43.214;27.906;2023-07-08T06:55:55;11.40;;;4.77;;
6199;SDS011;3133;43.214;27.906;2023-07-08T06:58:22;7.50;;;4.83;;
6199;SDS011;3133;43.214;27.906;2023-07-08T07:00:49;8.87;;;4.90;;
6199;SDS011;3133;43.214;27.906;2023-07-08T07:03:18;6.73;;;5.47;;
6199;SDS011;3133;43.214;27.906;2023-07-08T07:05:44;8.40;;;4.67;;
6199;SDS011;3133;43.214;27.906;2023-07-08T07:08:11;9.47;;;5.30;;
6199;SDS011;3133;43.214;27.906;2023-07-08T07:10:38;11.20;;;5.20;;
6199;SDS011;3133;43.214;27.906;2023-07-08T07:13:05;7.70;;;4.53;;
6199;SDS011;3133;43.214;27.906;2023-07-08T07:15:32;7.20;;;5.07;;
6199;SDS011;3133;43.214;27.906;2023-07-08T07:17:59;8.70;;;5.47;;
6199;SDS011;3133;43.214;27.906;2023-07-08T07:20:27;10.40;;;4.97;;
6199;SDS011;3133;43.214;27.906;2023-07-08T07:22:54;9.30;;;5.00;;
6199;SDS011;3133;43.214;27.906;2023-07-08T07:25:21;5.53;;;4.97;;
6199;SDS011;3133;43.214;27.906;2023-07-08T07:27:49;5.53;;;4.93;;
6199;SDS011;3133;43.214;27.906;2023-07-08T07:30:16;6.97;;;5.20;;
6199;SDS011;3133;43.214;27.906;2023-07-08T07:32:44;5.60;;;4.77;;
6199;SDS011;3133;43.214;27.906;2023-07-08T07:35:11;10.53;;;5.77;;
6199;SDS011;3133;43.214;27.906;2023-07-08T07:37:41;9.70;;;5.70;;
6199;SDS011;3133;43.214;27.906;2023-07-08T07:40:09;12.10;;;5.00;;
6199;SDS011;3133;43.214;27.906;2023-07-08T07:42:40;6.33;;;4.70;;
6199;SDS011;3133;43.214;27.906;2023-07-08T07:45:09;12.73;;;4.80;;
6199;SDS011;3133;43.214;27.906;2023-07-08T07:47:40;9.63;;;5.20;;
6199;SDS011;3133;43.214;27.906;2023-07-08T07:50:08;7.27;;;4.07;;
6199;SDS011;3133;43.214;27.906;2023-07-08T07:52:35;18.77;;;5.07;;
6199;SDS011;3133;43.214;27.906;2023-07-08T07:55:04;10.03;;;4.70;;
6199;SDS011;3133;43.214;27.906;2023-07-08T07:57:31;8.53;;;4.10;;
6199;SDS011;3133;43.214;27.906;2023-07-08T07:59:58;17.33;;;4.57;;
6199;SDS011;3133;43.214;27.906;2023-07-08T08:02:25;6.87;;;3.57;;
6199;SDS011;3133;43.214;27.906;2023-07-08T08:04:52;8.53;;;3.80;;
6199;SDS011;3133;43.214;27.906;2023-07-08T08:07:19;8.40;;;4.10;;
6199;SDS011;3133;43.214;27.906;2023-07-08T08:09:48;12.00;;;4.70;;
6199;SDS011;3133;43.214;27.906;2023-07-08T08:12:19;6.93;;;4.30;;
6199;SDS011;3133;43.214;27.906;2023-07-08T08:14:48;14.57;;;4.30;;
6199;SDS011;3133;43.214;27.906;2023-07-08T08:17:17;5.87;;;4.13;;
6199;SDS011;3133;43.214;27.906;2023-07-08T08:19:44;6.17;;;3.80;;
6199;SDS011;3133;43.214;27.906;2023-07-08T08:22:13;4.40;;;4.03;;
6199;SDS011;3133;43.214;27.906;2023-07-08T08:24:41;6.43;;;4.27;;
6199;SDS011;3133;43.214;27.906;2023-07-08T08:27:25;4.80;;;3.87;;
6199;SDS011;3133;43.214;27.906;2023-07-08T08:29:52;7.57;;;3.77;;
6199;SDS011;3133;43.214;27.906;2023-07-08T08:32:19;5.87;;;4.20;;
6199;SDS011;3133;43.214;27.906;2023-07-08T08:34:47;6.23;;;4.07;;
6199;SDS011;3133;43.214;27.906;2023-07-08T08:37:14;5.57;;;4.40;;
6199;SDS011;3133;43.214;27.906;2023-07-08T08:39:40;5.33;;;4.50;;
6199;SDS011;3133;43.214;27.906;2023-07-08T08:42:09;8.40;;;4.07;;
6199;SDS011;3133;43.214;27.906;2023-07-08T08:44:47;5.47;;;4.07;;
6199;SDS011;3133;43.214;27.906;2023-07-08T08:47:16;6.87;;;4.30;;
6199;SDS011;3133;43.214;27.906;2023-07-08T08:49:57;3.90;;;3.50;;
6199;SDS011;3133;43.214;27.906;2023-07-08T08:52:30;5.97;;;5.30;;
6199;SDS011;3133;43.214;27.906;2023-07-08T08:54:57;5.93;;;4.43;;
6199;SDS011;3133;43.214;27.906;2023-07-08T08:57:28;5.50;;;3.77;;
6199;SDS011;3133;43.214;27.906;2023-07-08T09:00:08;4.73;;;4.20;;
6199;SDS011;3133;43.214;27.906;2023-07-08T09:02:39;4.90;;;3.70;;
6199;SDS011;3133;43.214;27.906;2023-07-08T09:05:13;4.77;;;3.40;;
6199;SDS011;3133;43.214;27.906;2023-07-08T09:07:44;3.83;;;3.30;;
6199;SDS011;3133;43.214;27.906;2023-07-08T09:10:19;6.67;;;3.67;;
6199;SDS011;3133;43.214;27.906;2023-07-08T09:12:56;7.33;;;3.93;;
6199;SDS011;3133;43.214;27.906;2023-07-08T09:15:27;7.40;;;4.20;;
6199;SDS011;3133;43.214;27.906;2023-07-08T09:17:59;4.17;;;3.77;;
6199;SDS011;3133;43.214;27.906;2023-07-08T09:20:42;6.00;;;4.20;;
6199;SDS011;3133;43.214;27.906;2023-07-08T09:23:11;5.57;;;3.73;;
6199;SDS011;3133;43.214;27.906;2023-07-08T09:25:49;4.17;;;3.50;;
6199;SDS011;3133;43.214;27.906;2023-07-08T09:28:20;9.40;;;5.70;;
6199;SDS011;3133;43.214;27.906;2023-07-08T09:30:49;8.67;;;5.57;;
6199;SDS011;3133;43.214;27.906;2023-07-08T09:33:29;9.40;;;4.53;;
6199;SDS011;3133;43.214;27.906;2023-07-08T09:36:00;4.13;;;3.70;;
6199;SDS011;3133;43.214;27.906;2023-07-08T09:38:46;10.97;;;4.10;;
6199;SDS011;3133;43.214;27.906;2023-07-08T09:41:29;8.67;;;4.10;;
6199;SDS011;3133;43.214;27.906;2023-07-08T09:44:02;10.13;;;4.27;;
6199;SDS011;3133;43.214;27.906;2023-07-08T09:49:18;5.93;;;4.30;;
6199;SDS011;3133;43.214;27.906;2023-07-08T09:51:48;12.23;;;4.30;;
6199;SDS011;3133;43.214;27.906;2023-07-08T09:54:17;9.63;;;4.10;;
6199;SDS011;3133;43.214;27.906;2023-07-08T09:56:47;5.70;;;3.83;;
6199;SDS011;3133;43.214;27.906;2023-07-08T09:59:30;6.10;;;4.07;;
6199;SDS011;3133;43.214;27.906;2023-07-08T10:02:03;4.00;;;3.50;;
6199;SDS011;3133;43.214;27.906;2023-07-08T10:04:51;6.57;;;4.07;;
6199;SDS011;3133;43.214;27.906;2023-07-08T10:07:19;7.27;;;4.03;;
6199;SDS011;3133;43.214;27.906;2023-07-08T10:09:46;14.73;;;4.03;;
6199;SDS011;3133;43.214;27.906;2023-07-08T10:12:15;6.10;;;4.37;;
6199;SDS011;3133;43.214;27.906;2023-07-08T10:14:43;12.00;;;4.90;;
6199;SDS011;3133;43.214;27.906;2023-07-08T10:17:17;7.60;;;5.33;;
6199;SDS011;3133;43.214;27.906;2023-07-08T10:19:47;9.97;;;4.63;;
6199;SDS011;3133;43.214;27.906;2023-07-08T10:22:18;10.17;;;4.33;;
6199;SDS011;3133;43.214;27.906;2023-07-08T10:25:01;8.87;;;4.73;;
6199;SDS011;3133;43.214;27.906;2023-07-08T10:27:39;5.40;;;4.03;;
6199;SDS011;3133;43.214;27.906;2023-07-08T10:30:16;6.47;;;3.97;;
6199;SDS011;3133;43.214;27.906;2023-07-08T10:33:07;6.00;;;3.60;;
6199;SDS011;3133;43.214;27.906;2023-07-08T10:35:47;7.60;;;4.33;;
6199;SDS011;3133;43.214;27.906;2023-07-08T10:38:26;12.03;;;4.23;;
6199;SDS011;3133;43.214;27.906;2023-07-08T10:41:08;4.27;;;3.87;;
6199;SDS011;3133;43.214;27.906;2023-07-08T10:43:44;14.83;;;5.27;;
6199;SDS011;3133;43.214;27.906;2023-07-08T10:46:22;7.07;;;4.10;;
6199;SDS011;3133;43.214;27.906;2023-07-08T10:52:03;5.93;;;4.00;;
6199;SDS011;3133;43.214;27.906;2023-07-08T10:54:44;8.10;;;4.13;;
6199;SDS011;3133;43.214;27.906;2023-07-08T10:57:32;11.57;;;4.60;;
6199;SDS011;3133;43.214;27.906;2023-07-08T11:00:15;4.90;;;4.07;;
6199;SDS011;3133;43.214;27.906;2023-07-08T11:05:49;4.87;;;3.80;;
6199;SDS011;3133;43.214;27.906;2023-07-08T11:08:27;3.40;;;3.10;;
6199;SDS011;3133;43.214;27.906;2023-07-08T11:11:00;4.23;;;3.40;;
6199;SDS011;3133;43.214;27.906;2023-07-08T11:13:31;3.97;;;3.47;;
6199;SDS011;3133;43.214;27.906;2023-07-08T11:16:08;4.43;;;3.47;;
6199;SDS011;3133;43.214;27.906;2023-07-08T11:18:43;10.43;;;3.67;;
6199;SDS011;3133;43.214;27.906;2023-07-08T11:21:19;5.83;;;3.20;;
6199;SDS011;3133;43.214;27.906;2023-07-08T11:23:52;7.10;;;3.83;;
6199;SDS011;3133;43.214;27.906;2023-07-08T11:26:30;5.23;;;3.37;;
6199;SDS011;3133;43.214;27.906;2023-07-08T11:29:00;4.57;;;3.33;;
6199;SDS011;3133;43.214;27.906;2023-07-08T11:31:29;4.27;;;3.80;;
6199;SDS011;3133;43.214;27.906;2023-07-08T11:34:15;5.83;;;3.23;;
6199;SDS011;3133;43.214;27.906;2023-07-08T11:36:44;7.23;;;3.80;;
6199;SDS011;3133;43.214;27.906;2023-07-08T11:42:22;7.30;;;4.10;;
6199;SDS011;3133;43.214;27.906;2023-07-08T11:45:23;5.67;;;3.97;;
6199;SDS011;3133;43.214;27.906;2023-07-08T11:47:52;9.57;;;3.57;;
6199;SDS011;3133;43.214;27.906;2023-07-08T11:50:21;15.43;;;4.43;;
6199;SDS011;3133;43.214;27.906;2023-07-08T11:52:51;6.00;;;4.00;;
6199;SDS011;3133;43.214;27.906;2023-07-08T11:55:23;3.80;;;3.50;;
6199;SDS011;3133;43.214;27.906;2023-07-08T11:57:54;8.70;;;3.83;;
6199;SDS011;3133;43.214;27.906;2023-07-08T12:00:25;12.53;;;4.37;;
6199;SDS011;3133;43.214;27.906;2023-07-08T12:03:19;6.93;;;3.90;;
6199;SDS011;3133;43.214;27.906;2023-07-08T12:05:48;28.30;;;4.93;;
6199;SDS011;3133;43.214;27.906;2023-07-08T12:08:18;9.60;;;4.17;;
6199;SDS011;3133;43.214;27.906;2023-07-08T12:10:49;12.57;;;4.57;;
6199;SDS011;3133;43.214;27.906;2023-07-08T12:13:22;8.20;;;3.90;;
6199;SDS011;3133;43.214;27.906;2023-07-08T12:15:52;7.67;;;4.20;;
6199;SDS011;3133;43.214;27.906;2023-07-08T12:18:21;13.00;;;3.90;;
6199;SDS011;3133;43.214;27.906;2023-07-08T12:20:54;15.07;;;3.73;;
6199;SDS011;3133;43.214;27.906;2023-07-08T12:23:23;16.07;;;4.00;;
6199;SDS011;3133;43.214;27.906;2023-07-08T12:25:54;4.93;;;3.17;;
6199;SDS011;3133;43.214;27.906;2023-07-08T12:28:22;9.23;;;3.80;;
6199;SDS011;3133;43.214;27.906;2023-07-08T12:30:50;11.30;;;3.93;;
6199;SDS011;3133;43.214;27.906;2023-07-08T12:33:22;9.57;;;4.30;;
6199;SDS011;3133;43.214;27.906;2023-07-08T12:35:52;9.90;;;4.43;;
6199;SDS011;3133;43.214;27.906;2023-07-08T12:38:20;8.43;;;3.93;;
6199;SDS011;3133;43.214;27.906;2023-07-08T12:43:39;13.67;;;4.30;;
6199;SDS011;3133;43.214;27.906;2023-07-08T12:46:08;6.60;;;3.90;;
6199;SDS011;3133;43.214;27.906;2023-07-08T12:48:35;6.53;;;3.67;;
6199;SDS011;3133;43.214;27.906;2023-07-08T12:51:03;4.37;;;3.27;;
6199;SDS011;3133;43.214;27.906;2023-07-08T12:53:34;6.57;;;3.90;;
6199;SDS011;3133;43.214;27.906;2023-07-08T12:56:03;5.67;;;3.87;;
6199;SDS011;3133;43.214;27.906;2023-07-08T12:58:33;4.13;;;3.47;;
6199;SDS011;3133;43.214;27.906;2023-07-08T13:01:05;5.83;;;3.57;;
6199;SDS011;3133;43.214;27.906;2023-07-08T13:03:35;4.07;;;3.43;;
6199;SDS011;3133;43.214;27.906;2023-07-08T13:06:08;3.93;;;3.40;;
6199;SDS011;3133;43.214;27.906;2023-07-08T13:08:38;8.03;;;3.40;;
6199;SDS011;3133;43.214;27.906;2023-07-08T13:11:08;3.97;;;3.57;;
6199;SDS011;3133;43.214;27.906;2023-07-08T13:13:44;4.57;;;3.57;;
6199;SDS011;3133;43.214;27.906;2023-07-08T13:16:15;5.27;;;3.23;;
6199;SDS011;3133;43.214;27.906;2023-07-08T13:18:43;6.67;;;3.70;;
6199;SDS011;3133;43.214;27.906;2023-07-08T13:21:13;4.07;;;2.97;;
6199;SDS011;3133;43.214;27.906;2023-07-08T13:23:42;3.40;;;3.07;;
6199;SDS011;3133;43.214;27.906;2023-07-08T13:26:14;5.40;;;3.07;;
6199;SDS011;3133;43.214;27.906;2023-07-08T13:28:44;3.83;;;3.20;;
6199;SDS011;3133;43.214;27.906;2023-07-08T13:31:15;7.90;;;3.63;;
6199;SDS011;3133;43.214;27.906;2023-07-08T13:33:50;4.77;;;2.97;;
6199;SDS011;3133;43.214;27.906;2023-07-08T13:36:19;4.27;;;3.27;;
6199;SDS011;3133;43.214;27.906;2023-07-08T13:38:48;7.57;;;3.43;;
6199;SDS011;3133;43.214;27.906;2023-07-08T13:41:18;6.13;;;3.00;;
6199;SDS011;3133;43.214;27.906;2023-07-08T13:43:48;3.67;;;2.80;;
6199;SDS011;3133;43.214;27.906;2023-07-08T13:46:25;9.77;;;3.47;;
6199;SDS011;3133;43.214;27.906;2023-07-08T13:48:58;8.00;;;3.23;;
6199;SDS011;3133;43.214;27.906;2023-07-08T13:51:28;5.03;;;3.37;;
6199;SDS011;3133;43.214;27.906;2023-07-08T13:53:58;3.73;;;3.00;;
6199;SDS011;3133;43.214;27.906;2023-07-08T13:56:28;5.13;;;3.10;;
6199;SDS011;3133;43.214;27.906;2023-07-08T13:59:01;9.23;;;2.77;;
6199;SDS011;3133;43.214;27.906;2023-07-08T14:01:31;9.07;;;2.93;;
6199;SDS011;3133;43.214;27.906;2023-07-08T14:04:00;5.60;;;3.43;;
6199;SDS011;3133;43.214;27.906;2023-07-08T14:06:29;8.13;;;3.23;;
6199;SDS011;3133;43.214;27.906;2023-07-08T14:09:00;5.27;;;3.07;;
6199;SDS011;3133;43.214;27.906;2023-07-08T14:11:34;7.17;;;3.27;;
6199;SDS011;3133;43.214;27.906;2023-07-08T14:14:02;3.87;;;2.93;;
6199;SDS011;3133;43.214;27.906;2023-07-08T14:16:30;8.03;;;3.00;;
6199;SDS011;3133;43.214;27.906;2023-07-08T14:19:03;4.40;;;2.47;;
6199;SDS011;3133;43.214;27.906;2023-07-08T14:21:33;4.97;;;2.67;;
6199;SDS011;3133;43.214;27.906;2023-07-08T14:24:04;4.47;;;3.10;;
6199;SDS011;3133;43.214;27.906;2023-07-08T14:26:36;3.60;;;2.93;;
6199;SDS011;3133;43.214;27.906;2023-07-08T14:29:04;5.90;;;3.20;;
6199;SDS011;3133;43.214;27.906;2023-07-08T14:31:31;7.90;;;2.73;;
6199;SDS011;3133;43.214;27.906;2023-07-08T14:34:00;3.67;;;2.77;;
6199;SDS011;3133;43.214;27.906;2023-07-08T14:36:31;9.37;;;3.23;;
6199;SDS011;3133;43.214;27.906;2023-07-08T14:38:58;5.57;;;2.97;;
6199;SDS011;3133;43.214;27.906;2023-07-08T14:41:25;4.70;;;2.50;;
6199;SDS011;3133;43.214;27.906;2023-07-08T14:43:53;6.73;;;2.90;;
6199;SDS011;3133;43.214;27.906;2023-07-08T14:46:24;3.70;;;2.70;;
6199;SDS011;3133;43.214;27.906;2023-07-08T14:48:50;4.30;;;3.13;;
6199;SDS011;3133;43.214;27.906;2023-07-08T14:51:18;3.80;;;2.97;;
6199;SDS011;3133;43.214;27.906;2023-07-08T14:53:46;7.13;;;3.13;;
6199;SDS011;3133;43.214;27.906;2023-07-08T14:56:16;3.40;;;2.77;;
6199;SDS011;3133;43.214;27.906;2023-07-08T14:58:49;10.03;;;2.60;;
6199;SDS011;3133;43.214;27.906;2023-07-08T15:01:19;7.30;;;2.63;;
6199;SDS011;3133;43.214;27.906;2023-07-08T15:03:50;7.07;;;2.70;;
6199;SDS011;3133;43.214;27.906;2023-07-08T15:06:17;8.60;;;2.97;;
6199;SDS011;3133;43.214;27.906;2023-07-08T15:08:45;8.83;;;3.07;;
6199;SDS011;3133;43.214;27.906;2023-07-08T15:11:13;3.17;;;2.77;;
6199;SDS011;3133;43.214;27.906;2023-07-08T15:13:43;5.47;;;3.23;;
6199;SDS011;3133;43.214;27.906;2023-07-08T15:16:12;6.63;;;3.97;;
6199;SDS011;3133;43.214;27.906;2023-07-08T15:18:41;4.43;;;2.77;;
6199;SDS011;3133;43.214;27.906;2023-07-08T15:21:13;5.87;;;3.20;;
6199;SDS011;3133;43.214;27.906;2023-07-08T15:23:42;3.57;;;3.00;;
6199;SDS011;3133;43.214;27.906;2023-07-08T15:26:10;5.60;;;2.73;;
6199;SDS011;3133;43.214;27.906;2023-07-08T15:28:40;2.87;;;2.57;;
6199;SDS011;3133;43.214;27.906;2023-07-08T15:31:13;4.43;;;3.13;;